createdAt,value
2022-11-29T00:00:02.933Z,28.90
2022-11-29T00:00:59.862Z,29.00
2022-11-29T00:01:59.937Z,27.80
2022-11-29T00:02:59.936Z,26.30
2022-11-29T00:03:59.835Z,26.60
2022-11-29T00:04:59.803Z,25.80
2022-11-29T00:05:59.802Z,28.10
2022-11-29T00:06:59.781Z,25.60
2022-11-29T00:07:59.789Z,26.60
2022-11-29T00:08:59.781Z,23.90
2022-11-29T00:09:59.741Z,30.10
2022-11-29T00:10:59.730Z,25.50
2022-11-29T00:11:59.723Z,26.80
2022-11-29T00:12:59.703Z,25.20
2022-11-29T00:13:59.701Z,25.80
2022-11-29T00:14:59.711Z,26.40
2022-11-29T00:15:59.671Z,26.30
2022-11-29T00:16:59.675Z,23.90
2022-11-29T00:17:59.641Z,24.00
2022-11-29T00:18:59.629Z,23.50
2022-11-29T00:19:59.610Z,25.20
2022-11-29T00:20:59.609Z,26.30
2022-11-29T00:21:59.579Z,25.40
2022-11-29T00:22:59.569Z,25.50
2022-11-29T00:23:59.563Z,23.20
2022-11-29T00:24:59.540Z,23.40
2022-11-29T00:25:59.540Z,23.70
2022-11-29T00:26:59.550Z,23.50
2022-11-29T00:27:59.510Z,22.90
2022-11-29T00:28:59.494Z,24.30
2022-11-29T00:29:59.501Z,24.10
2022-11-29T00:30:59.511Z,23.90
2022-11-29T00:31:59.461Z,26.90
2022-11-29T00:32:59.449Z,22.90
2022-11-29T00:33:59.428Z,23.40
2022-11-29T00:34:59.761Z,25.20
2022-11-29T00:35:59.405Z,25.00
2022-11-29T00:36:59.388Z,22.10
2022-11-29T00:37:59.378Z,24.00
2022-11-29T00:38:59.378Z,24.80
2022-11-29T00:39:59.350Z,25.50
2022-11-29T00:40:59.327Z,23.20
2022-11-29T00:41:59.329Z,23.70
2022-11-29T00:42:59.298Z,24.60
2022-11-29T00:43:59.307Z,23.00
2022-11-29T00:44:59.297Z,22.00
2022-11-29T00:45:59.288Z,24.60
2022-11-29T00:46:59.245Z,24.90
2022-11-29T00:47:59.237Z,24.80
2022-11-29T00:48:59.218Z,21.10
2022-11-29T00:49:59.216Z,23.00
2022-11-29T00:50:59.227Z,23.70
2022-11-29T00:51:59.187Z,22.50
2022-11-29T00:52:59.167Z,21.50
2022-11-29T00:53:59.164Z,21.90
2022-11-29T00:54:59.145Z,25.50
2022-11-29T00:55:59.137Z,23.10
2022-11-29T00:56:59.146Z,22.80
2022-11-29T00:57:59.122Z,23.90
2022-11-29T00:58:59.089Z,23.90
2022-11-29T00:59:59.086Z,24.90
2022-11-29T01:00:59.117Z,23.00
2022-11-29T01:01:59.100Z,25.90
2022-11-29T01:02:59.057Z,20.80
2022-11-29T01:03:59.028Z,22.40
2022-11-29T01:04:59.005Z,26.00
2022-11-29T01:05:59.016Z,25.10
2022-11-29T01:06:58.985Z,27.50
2022-11-29T01:07:59.027Z,28.10
2022-11-29T01:08:58.966Z,25.40
2022-11-29T01:09:58.942Z,26.80
2022-11-29T01:10:58.934Z,28.40
2022-11-29T01:11:58.928Z,26.80
2022-11-29T01:12:58.905Z,23.50
2022-11-29T01:13:58.898Z,28.60
2022-11-29T01:14:58.914Z,24.40
2022-11-29T01:15:58.875Z,25.40
2022-11-29T01:16:58.885Z,28.20
2022-11-29T01:17:58.844Z,30.50
2022-11-29T01:18:58.823Z,27.90
2022-11-29T01:19:58.814Z,28.10
2022-11-29T01:20:58.825Z,26.60
2022-11-29T01:21:58.792Z,31.60
2022-11-29T01:22:58.766Z,28.80
2022-11-29T01:23:58.765Z,28.40
2022-11-29T01:24:58.743Z,28.30
2022-11-29T01:25:58.736Z,26.60
2022-11-29T01:26:58.748Z,26.70
2022-11-29T01:27:58.711Z,30.20
2022-11-29T01:28:58.699Z,27.20
2022-11-29T01:29:58.684Z,26.20
2022-11-29T01:30:58.700Z,28.00
2022-11-29T01:31:58.674Z,25.60
2022-11-29T01:32:58.660Z,25.60
2022-11-29T01:33:58.662Z,26.80
2022-11-29T01:34:58.613Z,28.60
2022-11-29T01:35:58.609Z,31.00
2022-11-29T01:36:58.586Z,27.60
2022-11-29T01:37:58.572Z,27.60
2022-11-29T01:38:58.582Z,27.40
2022-11-29T01:39:58.551Z,26.90
2022-11-29T01:40:58.540Z,27.00
2022-11-29T01:41:58.525Z,25.40
2022-11-29T01:42:58.505Z,31.20
2022-11-29T01:43:58.502Z,27.60
2022-11-29T01:44:58.503Z,25.80
2022-11-29T01:45:58.497Z,28.60
2022-11-29T01:46:58.462Z,23.20
2022-11-29T01:47:58.441Z,29.00
2022-11-29T01:48:58.430Z,25.50
2022-11-29T01:49:58.411Z,26.30
2022-11-29T01:50:58.420Z,26.60
2022-11-29T01:51:58.401Z,27.00
2022-11-29T01:52:58.382Z,24.50
2022-11-29T01:53:58.370Z,23.90
2022-11-29T01:54:58.351Z,26.40
2022-11-29T01:55:58.363Z,26.60
2022-11-29T01:56:58.340Z,24.60
2022-11-29T01:57:58.322Z,26.20
2022-11-29T01:58:58.320Z,24.10
2022-11-29T01:59:58.302Z,24.50
2022-11-29T02:00:58.319Z,25.40
2022-11-29T02:01:58.259Z,26.80
2022-11-29T02:02:58.303Z,24.40
2022-11-29T02:03:58.240Z,25.80
2022-11-29T02:04:58.222Z,25.50
2022-11-29T02:05:58.220Z,27.50
2022-11-29T02:06:58.190Z,26.60
2022-11-29T02:07:58.240Z,26.50
2022-11-29T02:08:58.191Z,25.70
2022-11-29T02:09:58.159Z,24.80
2022-11-29T02:10:58.138Z,24.50
2022-11-29T02:11:58.132Z,25.90
2022-11-29T02:12:58.111Z,27.80
2022-11-29T02:13:58.110Z,28.40
2022-11-29T02:14:58.100Z,26.70
2022-11-29T02:15:58.119Z,28.20
2022-11-29T02:16:58.056Z,26.20
2022-11-29T02:17:58.052Z,27.60
2022-11-29T02:18:58.030Z,26.80
2022-11-29T02:19:58.017Z,29.70
2022-11-29T02:20:58.038Z,29.60
2022-11-29T02:21:57.996Z,26.10
2022-11-29T02:22:57.978Z,28.70
2022-11-29T02:23:57.980Z,29.20
2022-11-29T02:24:57.948Z,28.30
2022-11-29T02:25:57.946Z,29.20
2022-11-29T02:26:57.946Z,30.10
2022-11-29T02:27:57.917Z,29.60
2022-11-29T02:28:57.907Z,27.70
2022-11-29T02:29:57.888Z,28.90
2022-11-29T02:30:57.912Z,27.30
2022-11-29T02:31:57.864Z,31.60
2022-11-29T02:32:57.860Z,28.60
2022-11-29T02:33:57.864Z,28.00
2022-11-29T02:34:57.817Z,31.20
2022-11-29T02:35:57.836Z,28.10
2022-11-29T02:36:57.808Z,31.10
2022-11-29T02:37:57.796Z,31.30
2022-11-29T02:38:57.807Z,28.30
2022-11-29T02:39:57.755Z,32.80
2022-11-29T02:40:57.736Z,32.30
2022-11-29T02:41:57.726Z,28.80
2022-11-29T02:42:57.715Z,30.70
2022-11-29T02:43:57.704Z,29.00
2022-11-29T02:44:57.708Z,29.70
2022-11-29T02:45:57.726Z,30.30
2022-11-29T02:46:57.655Z,29.50
2022-11-29T02:47:57.656Z,28.50
2022-11-29T02:48:57.627Z,30.10
2022-11-29T02:49:57.625Z,29.40
2022-11-29T02:50:57.634Z,29.20
2022-11-29T02:51:57.605Z,28.20
2022-11-29T02:52:57.575Z,30.00
2022-11-29T02:53:57.574Z,29.30
2022-11-29T02:54:57.554Z,30.40
2022-11-29T02:55:57.545Z,29.90
2022-11-29T02:56:57.553Z,25.30
2022-11-29T02:57:57.521Z,28.00
2022-11-29T02:58:57.494Z,28.90
2022-11-29T02:59:57.493Z,26.30
2022-11-29T03:00:57.473Z,30.70
2022-11-29T03:01:57.472Z,29.00
2022-11-29T03:02:57.480Z,30.30
2022-11-29T03:03:57.443Z,31.50
2022-11-29T03:04:57.426Z,29.50
2022-11-29T03:05:57.417Z,30.70
2022-11-29T03:06:57.427Z,29.80
2022-11-29T03:07:57.397Z,30.20
2022-11-29T03:08:57.393Z,32.50
2022-11-29T03:09:57.363Z,30.00
2022-11-29T03:10:57.343Z,29.60
2022-11-29T03:11:57.338Z,32.00
2022-11-29T03:12:57.321Z,29.70
2022-11-29T03:13:57.313Z,30.80
2022-11-29T03:14:57.339Z,32.10
2022-11-29T03:15:57.294Z,30.30
2022-11-29T03:16:57.262Z,31.40
2022-11-29T03:17:57.252Z,31.00
2022-11-29T03:18:57.238Z,28.60
2022-11-29T03:19:57.230Z,30.30
2022-11-29T03:20:57.232Z,33.00
2022-11-29T03:21:57.210Z,29.40
2022-11-29T03:22:57.182Z,29.60
2022-11-29T03:23:57.180Z,30.20
2022-11-29T03:24:57.160Z,32.50
2022-11-29T03:25:57.150Z,32.00
2022-11-29T03:26:57.151Z,31.50
2022-11-29T03:27:57.121Z,29.90
2022-11-29T03:28:57.119Z,31.80
2022-11-29T03:29:57.105Z,32.20
2022-11-29T03:30:57.127Z,33.60
2022-11-29T03:31:57.070Z,33.30
2022-11-29T03:32:57.069Z,31.50
2022-11-29T03:33:57.040Z,34.00
2022-11-29T03:34:57.716Z,31.30
2022-11-29T03:35:57.010Z,29.70
2022-11-29T03:36:57.010Z,29.60
2022-11-29T03:37:56.990Z,27.90
2022-11-29T03:38:56.989Z,30.60
2022-11-29T03:39:56.969Z,29.30
2022-11-29T03:40:56.954Z,32.00
2022-11-29T03:41:56.948Z,32.20
2022-11-29T03:42:56.920Z,29.90
2022-11-29T03:43:56.919Z,31.40
2022-11-29T03:44:56.929Z,33.20
2022-11-29T03:45:56.933Z,29.60
2022-11-29T03:46:56.869Z,30.90
2022-11-29T03:47:56.857Z,31.20
2022-11-29T03:48:56.839Z,30.50
2022-11-29T03:49:56.830Z,31.30
2022-11-29T03:50:56.829Z,27.40
2022-11-29T03:51:56.808Z,30.80
2022-11-29T03:52:56.778Z,32.30
2022-11-29T03:53:56.778Z,28.80
2022-11-29T03:54:56.768Z,34.90
2022-11-29T03:55:56.747Z,29.30
2022-11-29T03:56:56.756Z,34.00
2022-11-29T03:57:56.718Z,32.50
2022-11-29T03:58:56.717Z,29.90
2022-11-29T03:59:56.687Z,31.40
2022-11-29T04:00:56.685Z,29.40
2022-11-29T04:01:56.735Z,30.20
2022-11-29T04:02:56.709Z,30.30
2022-11-29T04:03:56.638Z,31.90
2022-11-29T04:04:56.626Z,28.10
2022-11-29T04:05:56.615Z,32.70
2022-11-29T04:06:56.608Z,32.30
2022-11-29T04:07:56.644Z,29.80
2022-11-29T04:08:56.595Z,33.80
2022-11-29T04:09:56.557Z,31.70
2022-11-29T04:10:56.557Z,30.10
2022-11-29T04:11:56.535Z,28.70
2022-11-29T04:12:56.525Z,30.00
2022-11-29T04:13:56.504Z,30.50
2022-11-29T04:14:56.514Z,28.40
2022-11-29T04:15:56.508Z,30.20
2022-11-29T04:16:56.474Z,28.50
2022-11-29T04:17:56.455Z,31.00
2022-11-29T04:18:56.453Z,27.80
2022-11-29T04:19:56.430Z,27.80
2022-11-29T04:20:56.435Z,26.20
2022-11-29T04:21:56.394Z,29.50
2022-11-29T04:22:57.403Z,28.90
2022-11-29T04:23:56.373Z,30.80
2022-11-29T04:24:56.365Z,30.90
2022-11-29T04:25:56.344Z,28.30
2022-11-29T04:26:56.365Z,30.00
2022-11-29T04:27:56.322Z,28.40
2022-11-29T04:28:56.314Z,33.20
2022-11-29T04:29:56.294Z,30.20
2022-11-29T04:30:56.385Z,29.60
2022-11-29T04:31:56.263Z,28.50
2022-11-29T04:32:56.283Z,31.80
2022-11-29T04:33:56.243Z,27.80
2022-11-29T04:34:56.245Z,31.00
2022-11-29T04:35:56.213Z,29.80
2022-11-29T04:36:56.211Z,28.70
2022-11-29T04:37:56.193Z,29.80
2022-11-29T04:38:56.192Z,31.40
2022-11-29T04:39:56.162Z,26.20
2022-11-29T04:40:56.151Z,28.90
2022-11-29T04:41:56.132Z,29.10
2022-11-29T04:42:56.123Z,28.20
2022-11-29T04:43:56.110Z,29.70
2022-11-29T04:44:56.144Z,30.90
2022-11-29T04:45:56.082Z,28.40
2022-11-29T04:46:56.066Z,28.60
2022-11-29T04:47:56.051Z,29.90
2022-11-29T04:48:56.042Z,31.30
2022-11-29T04:49:56.030Z,30.80
2022-11-29T04:50:56.043Z,29.50
2022-11-29T04:51:55.992Z,30.00
2022-11-29T04:52:55.991Z,27.70
2022-11-29T04:53:55.976Z,32.40
2022-11-29T04:54:55.964Z,28.20
2022-11-29T04:55:55.943Z,31.10
2022-11-29T04:56:55.971Z,30.10
2022-11-29T04:57:55.919Z,30.30
2022-11-29T04:58:55.910Z,31.10
2022-11-29T04:59:55.898Z,28.40
2022-11-29T05:00:55.881Z,28.00
2022-11-29T05:01:55.908Z,31.30
2022-11-29T05:02:56.064Z,29.70
2022-11-29T05:03:57.375Z,32.00
2022-11-29T05:04:55.830Z,32.40
2022-11-29T05:05:55.819Z,29.00
2022-11-29T05:06:55.809Z,31.30
2022-11-29T05:07:55.806Z,30.70
2022-11-29T05:08:55.810Z,30.70
2022-11-29T05:09:55.769Z,31.70
2022-11-29T05:10:55.764Z,29.60
2022-11-29T05:11:55.732Z,29.60
2022-11-29T05:12:55.729Z,31.00
2022-11-29T05:13:55.713Z,26.80
2022-11-29T05:14:55.731Z,25.80
2022-11-29T05:15:55.708Z,26.50
2022-11-29T05:16:55.670Z,27.20
2022-11-29T05:17:55.649Z,26.80
2022-11-29T05:18:55.648Z,29.90
2022-11-29T05:19:55.629Z,27.60
2022-11-29T05:20:55.638Z,28.40
2022-11-29T05:21:55.600Z,27.90
2022-11-29T05:22:55.588Z,31.30
2022-11-29T05:23:55.576Z,27.90
2022-11-29T05:24:55.570Z,28.90
2022-11-29T05:25:55.548Z,27.90
2022-11-29T05:26:55.570Z,30.20
2022-11-29T05:27:55.519Z,27.50
2022-11-29T05:28:55.520Z,28.40
2022-11-29T05:29:55.498Z,29.40
2022-11-29T05:30:55.540Z,29.30
2022-11-29T05:31:55.467Z,28.10
2022-11-29T05:32:55.484Z,31.30
2022-11-29T05:33:55.437Z,25.90
2022-11-29T05:34:55.438Z,28.10
2022-11-29T05:35:55.416Z,29.70
2022-11-29T05:36:55.415Z,29.70
2022-11-29T05:37:55.394Z,30.70
2022-11-29T05:38:55.407Z,26.90
2022-11-29T05:39:55.373Z,28.40
2022-11-29T05:40:55.357Z,28.80
2022-11-29T05:41:55.336Z,25.80
2022-11-29T05:42:55.332Z,28.10
2022-11-29T05:43:55.316Z,29.50
2022-11-29T05:44:55.330Z,24.80
2022-11-29T05:45:55.286Z,25.20
2022-11-29T05:46:55.275Z,27.60
2022-11-29T05:47:55.257Z,29.10
2022-11-29T05:48:55.249Z,29.50
2022-11-29T05:49:55.225Z,30.50
2022-11-29T05:50:55.257Z,30.20
2022-11-29T05:51:55.206Z,27.70
2022-11-29T05:52:55.195Z,27.70
2022-11-29T05:53:55.175Z,26.50
2022-11-29T05:54:55.187Z,27.90
2022-11-29T05:55:55.154Z,26.20
2022-11-29T05:56:55.164Z,27.20
2022-11-29T05:57:55.116Z,26.40
2022-11-29T05:58:55.114Z,27.20
2022-11-29T05:59:55.095Z,28.80
2022-11-29T06:00:55.095Z,25.70
2022-11-29T06:01:55.106Z,25.70
2022-11-29T06:02:55.119Z,27.70
2022-11-29T06:03:55.047Z,28.00
2022-11-29T06:04:55.033Z,27.20
2022-11-29T06:05:55.054Z,28.00
2022-11-29T06:06:55.005Z,22.90
2022-11-29T06:07:55.040Z,29.70
2022-11-29T06:08:55.002Z,28.60
2022-11-29T06:09:58.044Z,30.50
2022-11-29T06:10:55.953Z,26.00
2022-11-29T06:11:54.946Z,27.10
2022-11-29T06:12:54.923Z,27.00
2022-11-29T06:13:54.914Z,26.30
2022-11-29T06:14:54.952Z,28.30
2022-11-29T06:15:54.944Z,27.60
2022-11-29T06:16:54.872Z,25.70
2022-11-29T06:17:54.864Z,27.30
2022-11-29T06:18:54.845Z,26.60
2022-11-29T06:19:54.833Z,28.80
2022-11-29T06:20:54.842Z,25.70
2022-11-29T06:21:54.852Z,26.10
2022-11-29T06:22:54.798Z,29.40
2022-11-29T06:23:54.781Z,26.70
2022-11-29T06:24:54.761Z,24.70
2022-11-29T06:25:58.254Z,27.20
2022-11-29T06:26:55.762Z,26.40
2022-11-29T06:27:54.722Z,29.00
2022-11-29T06:28:54.712Z,28.30
2022-11-29T06:29:54.721Z,28.00
2022-11-29T06:30:54.682Z,27.50
2022-11-29T06:31:54.682Z,24.30
2022-11-29T06:32:54.681Z,30.10
2022-11-29T06:33:54.655Z,28.30
2022-11-29T06:34:54.632Z,30.10
2022-11-29T06:35:54.621Z,28.30
2022-11-29T06:36:54.610Z,25.40
2022-11-29T06:37:54.591Z,27.60
2022-11-29T06:38:54.611Z,26.40
2022-11-29T06:39:54.571Z,25.00
2022-11-29T06:41:00.134Z,24.20
2022-11-29T06:41:55.540Z,27.40
2022-11-29T06:42:54.530Z,27.70
2022-11-29T06:43:54.512Z,26.90
2022-11-29T06:44:54.520Z,26.80
2022-11-29T06:45:54.488Z,29.00
2022-11-29T06:46:54.493Z,24.10
2022-11-29T06:47:54.451Z,28.60
2022-11-29T06:48:57.808Z,31.80
2022-11-29T06:49:55.470Z,26.00
2022-11-29T06:50:54.421Z,26.20
2022-11-29T06:51:54.410Z,25.60
2022-11-29T06:52:54.399Z,27.10
2022-11-29T06:53:54.373Z,28.00
2022-11-29T06:54:54.371Z,25.70
2022-11-29T06:55:54.380Z,25.60
2022-11-29T06:56:54.360Z,29.10
2022-11-29T06:57:54.318Z,24.30
2022-11-29T06:58:54.310Z,26.80
2022-11-29T06:59:54.305Z,27.00
2022-11-29T07:00:54.315Z,23.20
2022-11-29T07:01:54.311Z,25.80
2022-11-29T07:02:54.259Z,24.70
2022-11-29T07:03:54.238Z,25.20
2022-11-29T07:04:54.218Z,25.80
2022-11-29T07:05:54.217Z,27.50
2022-11-29T07:06:54.208Z,25.40
2022-11-29T07:07:54.248Z,25.60
2022-11-29T07:08:54.187Z,24.30
2022-11-29T07:09:54.157Z,27.00
2022-11-29T07:10:54.156Z,26.20
2022-11-29T07:11:54.137Z,27.40
2022-11-29T07:12:54.126Z,25.70
2022-11-29T07:13:54.127Z,26.20
2022-11-29T07:14:54.119Z,23.30
2022-11-29T07:15:54.151Z,22.70
2022-11-29T07:16:57.377Z,23.90
2022-11-29T07:17:54.056Z,23.60
2022-11-29T07:18:54.053Z,26.50
2022-11-29T07:19:54.072Z,27.70
2022-11-29T07:20:54.017Z,26.40
2022-11-29T07:21:53.996Z,25.00
2022-11-29T07:22:53.995Z,25.80
2022-11-29T07:23:53.976Z,26.20
2022-11-29T07:24:53.976Z,25.40
2022-11-29T07:25:53.985Z,29.30
2022-11-29T07:26:59.298Z,23.90
2022-11-29T07:27:54.927Z,25.50
2022-11-29T07:28:53.916Z,25.80
2022-11-29T07:29:53.896Z,24.70
2022-11-29T07:30:53.914Z,21.40
2022-11-29T07:31:53.934Z,24.20
2022-11-29T07:32:59.869Z,24.10
2022-11-29T07:33:54.845Z,24.60
2022-11-29T07:34:53.836Z,26.10
2022-11-29T07:35:53.812Z,24.60
2022-11-29T07:36:53.807Z,24.60
2022-11-29T07:37:53.807Z,23.30
2022-11-29T07:38:53.775Z,22.80
2022-11-29T07:39:53.766Z,22.80
2022-11-29T07:40:53.754Z,26.30
2022-11-29T07:41:53.733Z,25.70
2022-11-29T07:42:53.734Z,27.20
2022-11-29T07:43:53.734Z,23.20
2022-11-29T07:44:53.784Z,26.20
2022-11-29T07:45:53.684Z,20.80
2022-11-29T07:46:53.763Z,23.60
2022-11-29T07:47:53.653Z,24.80
2022-11-29T07:48:53.645Z,22.90
2022-11-29T07:49:53.668Z,21.80
2022-11-29T07:50:53.624Z,23.70
2022-11-29T07:51:53.601Z,23.00
2022-11-29T07:52:53.594Z,20.20
2022-11-29T07:53:53.575Z,22.60
2022-11-29T07:54:53.564Z,23.80
2022-11-29T07:55:53.583Z,24.50
2022-11-29T07:56:53.533Z,20.80
2022-11-29T07:57:53.524Z,23.10
2022-11-29T07:58:53.546Z,19.60
2022-11-29T07:59:53.493Z,23.00
2022-11-29T08:00:53.526Z,23.10
2022-11-29T08:01:53.522Z,20.10
2022-11-29T08:02:53.462Z,22.90
2022-11-29T08:03:53.441Z,21.00
2022-11-29T08:04:53.432Z,19.30
2022-11-29T08:05:53.412Z,19.90
2022-11-29T08:06:53.404Z,22.20
2022-11-29T08:07:53.426Z,20.60
2022-11-29T08:08:53.385Z,21.30
2022-11-29T08:09:53.363Z,21.30
2022-11-29T08:10:53.353Z,19.10
2022-11-29T08:11:53.341Z,18.50
2022-11-29T08:12:53.324Z,19.20
2022-11-29T08:13:53.342Z,19.70
2022-11-29T08:14:53.303Z,20.10
2022-11-29T08:15:53.285Z,18.10
2022-11-29T08:16:53.271Z,20.60
2022-11-29T08:17:53.256Z,18.10
2022-11-29T08:18:53.251Z,18.70
2022-11-29T08:19:53.251Z,20.90
2022-11-29T08:20:53.222Z,20.80
2022-11-29T08:21:53.202Z,19.00
2022-11-29T08:22:53.220Z,21.90
2022-11-29T08:23:53.191Z,21.60
2022-11-29T08:24:53.171Z,23.00
2022-11-29T08:25:53.192Z,21.80
2022-11-29T08:26:53.140Z,19.50
2022-11-29T08:27:53.119Z,20.10
2022-11-29T08:28:53.167Z,19.80
2022-11-29T08:29:53.099Z,17.70
2022-11-29T08:30:53.089Z,20.40
2022-11-29T08:31:53.162Z,19.00
2022-11-29T08:32:54.071Z,17.90
2022-11-29T08:33:53.058Z,18.70
2022-11-29T08:34:53.040Z,18.90
2022-11-29T08:35:53.018Z,18.60
2022-11-29T08:36:53.012Z,22.00
2022-11-29T08:37:53.021Z,17.90
2022-11-29T08:39:00.099Z,23.10
2022-11-29T08:39:53.967Z,20.00
2022-11-29T08:40:52.959Z,17.80
2022-11-29T08:41:52.943Z,19.60
2022-11-29T08:42:52.928Z,18.40
2022-11-29T08:43:52.939Z,23.00
2022-11-29T08:44:52.908Z,20.40
2022-11-29T08:45:52.964Z,20.40
2022-11-29T08:46:52.881Z,19.40
2022-11-29T08:47:52.860Z,19.50
2022-11-29T08:48:52.849Z,19.90
2022-11-29T08:49:52.871Z,23.10
2022-11-29T08:50:52.827Z,19.70
2022-11-29T08:51:52.809Z,19.50
2022-11-29T08:52:52.797Z,20.70
2022-11-29T08:53:52.779Z,17.30
2022-11-29T08:54:52.770Z,24.80
2022-11-29T08:55:52.788Z,19.30
2022-11-29T08:57:53.718Z,19.40
2022-11-29T08:58:52.731Z,20.80
2022-11-29T08:59:52.699Z,20.50
2022-11-29T09:00:52.736Z,18.70
2022-11-29T09:01:52.710Z,23.60
2022-11-29T09:02:52.671Z,21.30
2022-11-29T09:03:52.647Z,20.40
2022-11-29T09:04:52.636Z,18.40
2022-11-29T09:05:52.627Z,19.40
2022-11-29T09:06:52.620Z,20.20
2022-11-29T09:07:52.673Z,21.20
2022-11-29T09:08:52.588Z,23.00
2022-11-29T09:09:52.566Z,20.80
2022-11-29T09:10:52.560Z,21.70
2022-11-29T09:11:52.547Z,20.20
2022-11-29T09:12:52.526Z,21.20
2022-11-29T09:13:52.536Z,23.10
2022-11-29T09:14:52.506Z,24.10
2022-11-29T09:15:52.487Z,19.20
2022-11-29T09:16:52.517Z,19.40
2022-11-29T09:17:52.458Z,21.50
2022-11-29T09:18:52.467Z,22.50
2022-11-29T09:19:52.458Z,20.30
2022-11-29T09:20:52.425Z,21.10
2022-11-29T09:21:52.405Z,20.70
2022-11-29T09:22:52.485Z,17.70
2022-11-29T09:23:52.386Z,19.90
2022-11-29T09:24:53.382Z,19.50
2022-11-29T09:25:52.375Z,22.80
2022-11-29T09:26:52.345Z,21.60
2022-11-29T09:27:52.356Z,20.00
2022-11-29T09:28:52.314Z,19.40
2022-11-29T09:29:52.294Z,19.60
2022-11-29T09:30:52.293Z,19.00
2022-11-29T09:31:52.369Z,20.30
2022-11-29T09:32:52.282Z,20.10
2022-11-29T09:33:52.243Z,21.30
2022-11-29T09:34:52.244Z,21.70
2022-11-29T09:35:52.222Z,20.90
2022-11-29T09:36:52.220Z,18.90
2022-11-29T09:37:52.214Z,19.30
2022-11-29T09:38:52.184Z,19.70
2022-11-29T09:39:52.163Z,18.60
2022-11-29T09:40:52.158Z,19.00
2022-11-29T09:41:52.144Z,20.30
2022-11-29T09:42:52.135Z,19.30
2022-11-29T09:43:52.441Z,20.00
2022-11-29T09:44:52.103Z,17.70
2022-11-29T09:45:52.142Z,19.20
2022-11-29T09:46:57.183Z,18.40
2022-11-29T09:47:53.063Z,18.40
2022-11-29T09:48:52.062Z,18.40
2022-11-29T09:49:52.082Z,21.80
2022-11-29T09:50:52.023Z,21.90
2022-11-29T09:51:52.003Z,18.30
2022-11-29T09:52:52.008Z,20.90
2022-11-29T09:53:51.983Z,18.70
2022-11-29T09:54:51.972Z,19.00
2022-11-29T09:55:51.984Z,18.60
2022-11-29T09:56:51.950Z,19.00
2022-11-29T09:57:51.932Z,19.30
2022-11-29T09:58:51.926Z,18.90
2022-11-29T09:59:51.901Z,18.70
2022-11-29T10:00:51.955Z,19.80
2022-11-29T10:01:51.910Z,19.10
2022-11-29T10:02:51.935Z,23.20
2022-11-29T10:03:51.878Z,19.60
2022-11-29T10:04:51.842Z,19.60
2022-11-29T10:05:51.822Z,21.00
2022-11-29T10:06:51.811Z,20.00
2022-11-29T10:07:51.846Z,19.20
2022-11-29T10:08:51.792Z,19.00
2022-11-29T10:09:51.771Z,20.10
2022-11-29T10:10:51.834Z,19.30
2022-11-29T10:11:51.743Z,19.50
2022-11-29T10:12:51.741Z,17.10
2022-11-29T10:13:51.742Z,18.90
2022-11-29T10:14:52.656Z,19.50
2022-11-29T10:15:51.712Z,18.70
2022-11-29T10:16:51.732Z,20.50
2022-11-29T10:17:51.660Z,18.70
2022-11-29T10:18:51.667Z,19.00
2022-11-29T10:19:51.660Z,19.50
2022-11-29T10:20:51.631Z,18.70
2022-11-29T10:21:51.609Z,17.10
2022-11-29T10:22:51.601Z,17.60
2022-11-29T10:23:51.580Z,19.40
2022-11-29T10:24:51.592Z,19.70
2022-11-29T10:25:51.589Z,21.10
2022-11-29T10:26:51.557Z,19.20
2022-11-29T10:27:51.532Z,18.30
2022-11-29T10:28:51.531Z,21.00
2022-11-29T10:29:51.528Z,20.80
2022-11-29T10:30:51.533Z,19.70
2022-11-29T10:31:51.509Z,17.70
2022-11-29T10:32:51.467Z,17.60
2022-11-29T10:33:51.448Z,17.50
2022-11-29T10:34:51.450Z,16.60
2022-11-29T10:35:51.428Z,17.80
2022-11-29T10:36:51.425Z,19.70
2022-11-29T10:38:22.304Z,16.70
2022-11-29T10:38:52.387Z,19.40
2022-11-29T10:39:51.380Z,19.10
2022-11-29T10:40:51.368Z,18.60
2022-11-29T10:41:51.351Z,19.10
2022-11-29T10:42:51.364Z,18.10
2022-11-29T10:43:51.337Z,19.90
2022-11-29T10:44:51.307Z,19.10
2022-11-29T10:45:51.313Z,18.40
2022-11-29T10:46:51.278Z,20.10
2022-11-29T10:47:51.268Z,16.30
2022-11-29T10:48:51.261Z,19.70
2022-11-29T10:49:51.257Z,18.70
2022-11-29T10:50:51.228Z,19.70
2022-11-29T10:51:51.218Z,18.90
2022-11-29T10:52:54.644Z,19.80
2022-11-29T10:53:52.186Z,18.30
2022-11-29T10:54:51.199Z,16.60
2022-11-29T10:55:51.190Z,18.10
2022-11-29T10:56:51.159Z,18.70
2022-11-29T10:57:51.145Z,16.70
2022-11-29T10:58:51.126Z,18.20
2022-11-29T10:59:51.107Z,17.80
2022-11-29T11:00:51.159Z,20.90
2022-11-29T11:01:51.267Z,19.60
2022-11-29T11:02:51.077Z,17.60
2022-11-29T11:03:52.952Z,18.20
2022-11-29T11:04:51.045Z,19.10
2022-11-29T11:05:51.046Z,18.40
2022-11-29T11:06:51.015Z,17.50
2022-11-29T11:07:51.115Z,19.40
2022-11-29T11:08:50.988Z,17.00
2022-11-29T11:09:50.972Z,18.60
2022-11-29T11:10:54.484Z,21.80
2022-11-29T11:11:51.949Z,16.30
2022-11-29T11:12:50.947Z,20.10
2022-11-29T11:13:50.946Z,17.00
2022-11-29T11:14:50.915Z,18.80
2022-11-29T11:15:50.894Z,17.30
2022-11-29T11:16:50.929Z,17.70
2022-11-29T11:17:50.864Z,19.80
2022-11-29T11:18:50.855Z,19.10
2022-11-29T11:19:50.861Z,20.20
2022-11-29T11:20:50.835Z,17.00
2022-11-29T11:21:50.813Z,20.30
2022-11-29T11:22:50.815Z,20.80
2022-11-29T11:23:50.786Z,21.30
2022-11-29T11:24:50.776Z,19.10
2022-11-29T11:25:50.784Z,19.00
2022-11-29T11:26:50.754Z,19.00
2022-11-29T11:27:50.735Z,19.30
2022-11-29T11:28:50.724Z,19.30
2022-11-29T11:29:50.704Z,19.30
2022-11-29T11:30:50.744Z,18.70
2022-11-29T11:31:50.705Z,20.80
2022-11-29T11:32:50.694Z,19.50
2022-11-29T11:33:50.653Z,19.50
2022-11-29T11:34:50.644Z,19.30
2022-11-29T11:35:50.624Z,17.60
2022-11-29T11:36:50.615Z,19.50
2022-11-29T11:37:50.623Z,19.10
2022-11-29T11:38:50.595Z,21.40
2022-11-29T11:39:50.661Z,18.80
2022-11-29T11:40:55.069Z,22.80
2022-11-29T11:41:51.548Z,20.70
2022-11-29T11:42:50.533Z,21.50
2022-11-29T11:43:50.545Z,19.10
2022-11-29T11:44:50.531Z,16.80
2022-11-29T11:45:50.589Z,19.80
2022-11-29T11:46:50.505Z,18.20
2022-11-29T11:47:50.463Z,20.90
2022-11-29T11:48:50.464Z,20.60
2022-11-29T11:49:50.472Z,21.40
2022-11-29T11:50:50.451Z,19.20
2022-11-29T11:51:50.423Z,21.30
2022-11-29T11:52:51.004Z,20.80
2022-11-29T11:53:50.390Z,18.40
2022-11-29T11:54:50.381Z,18.60
2022-11-29T11:55:50.402Z,19.00
2022-11-29T11:56:50.355Z,20.80
2022-11-29T11:57:50.339Z,19.90
2022-11-29T11:58:50.334Z,20.40
2022-11-29T11:59:50.312Z,18.20
2022-11-29T12:01:06.262Z,19.80
2022-11-29T12:01:51.322Z,20.00
2022-11-29T12:02:50.385Z,19.20
2022-11-29T12:03:50.264Z,20.80
2022-11-29T12:04:50.243Z,19.80
2022-11-29T12:05:50.243Z,20.70
2022-11-29T12:06:50.222Z,18.90
2022-11-29T12:08:51.287Z,22.10
2022-11-29T12:09:50.198Z,17.70
2022-11-29T12:10:50.170Z,21.10
2022-11-29T12:11:50.151Z,21.50
2022-11-29T12:12:50.142Z,20.10
2022-11-29T12:13:50.160Z,21.80
2022-11-29T12:14:50.110Z,19.80
2022-11-29T12:15:50.183Z,22.30
2022-11-29T12:16:50.091Z,22.00
2022-11-29T12:17:50.073Z,20.20
2022-11-29T12:18:50.062Z,20.90
2022-11-29T12:19:50.071Z,21.20
2022-11-29T12:20:50.045Z,18.20
2022-11-29T12:21:50.012Z,19.60
2022-11-29T12:22:50.014Z,20.70
2022-11-29T12:23:49.996Z,18.60
2022-11-29T12:24:49.990Z,17.90
2022-11-29T12:25:50.038Z,21.00
2022-11-29T12:26:58.648Z,19.20
2022-11-29T12:27:50.940Z,23.20
2022-11-29T12:28:49.934Z,20.70
2022-11-29T12:29:49.909Z,19.90
2022-11-29T12:30:49.938Z,20.10
2022-11-29T12:31:49.909Z,19.10
2022-11-29T12:32:49.883Z,22.20
2022-11-29T12:33:49.861Z,19.40
2022-11-29T12:34:50.149Z,21.90
2022-11-29T12:35:49.829Z,18.00
2022-11-29T12:36:49.822Z,19.10
2022-11-29T12:37:49.827Z,18.00
2022-11-29T12:38:49.810Z,19.80
2022-11-29T12:39:49.789Z,20.40
2022-11-29T12:40:49.791Z,20.70
2022-11-29T12:41:53.914Z,19.40
2022-11-29T12:42:49.738Z,17.90
2022-11-29T12:43:49.749Z,22.30
2022-11-29T12:44:49.708Z,20.10
2022-11-29T12:45:49.707Z,18.00
2022-11-29T12:46:54.404Z,18.60
2022-11-29T12:47:52.241Z,21.10
2022-11-29T12:48:49.666Z,18.30
2022-11-29T12:49:49.668Z,18.70
2022-11-29T12:50:49.639Z,18.50
2022-11-29T12:51:49.631Z,21.10
2022-11-29T12:52:49.617Z,19.90
2022-11-29T12:53:49.589Z,18.50